sensor_id;sensor_type;location;lat;lon;timestamp;P1;durP1;ratioP1;P2;durP2;ratioP2
9729;SDS011;4904;49.152;11.004;2023-02-17T00:01:10;7.07;;;5.63;;
9729;SDS011;4904;49.152;11.004;2023-02-17T00:03:37;7.05;;;5.30;;
9729;SDS011;4904;49.152;11.004;2023-02-17T00:06:06;6.22;;;5.38;;
9729;SDS011;4904;49.152;11.004;2023-02-17T00:08:34;8.80;;;6.07;;
9729;SDS011;4904;49.152;11.004;2023-02-17T00:11:02;7.30;;;5.03;;
9729;SDS011;4904;49.152;11.004;2023-02-17T00:13:29;6.47;;;5.10;;
9729;SDS011;4904;49.152;11.004;2023-02-17T00:15:56;7.25;;;5.72;;
9729;SDS011;4904;49.152;11.004;2023-02-17T00:18:23;9.93;;;5.78;;
9729;SDS011;4904;49.152;11.004;2023-02-17T00:20:50;9.05;;;5.72;;
9729;SDS011;4904;49.152;11.004;2023-02-17T00:23:18;7.20;;;5.15;;
9729;SDS011;4904;49.152;11.004;2023-02-17T00:25:45;9.15;;;5.32;;
9729;SDS011;4904;49.152;11.004;2023-02-17T00:28:12;8.95;;;5.18;;
9729;SDS011;4904;49.152;11.004;2023-02-17T00:30:39;6.63;;;5.15;;
9729;SDS011;4904;49.152;11.004;2023-02-17T00:33:06;6.22;;;5.18;;
9729;SDS011;4904;49.152;11.004;2023-02-17T00:35:33;8.02;;;5.18;;
9729;SDS011;4904;49.152;11.004;2023-02-17T00:38:03;6.97;;;5.28;;
9729;SDS011;4904;49.152;11.004;2023-02-17T00:40:31;6.47;;;4.68;;
9729;SDS011;4904;49.152;11.004;2023-02-17T00:43:00;9.05;;;5.20;;
9729;SDS011;4904;49.152;11.004;2023-02-17T00:45:29;7.38;;;4.85;;
9729;SDS011;4904;49.152;11.004;2023-02-17T00:47:56;7.88;;;5.45;;
9729;SDS011;4904;49.152;11.004;2023-02-17T00:50:23;6.28;;;5.30;;
9729;SDS011;4904;49.152;11.004;2023-02-17T00:52:51;6.95;;;4.75;;
9729;SDS011;4904;49.152;11.004;2023-02-17T00:55:19;5.18;;;4.68;;
9729;SDS011;4904;49.152;11.004;2023-02-17T00:57:48;10.15;;;6.95;;
9729;SDS011;4904;49.152;11.004;2023-02-17T01:00:16;11.73;;;6.85;;
9729;SDS011;4904;49.152;11.004;2023-02-17T01:02:43;6.95;;;4.85;;
9729;SDS011;4904;49.152;11.004;2023-02-17T01:05:11;4.97;;;4.47;;
9729;SDS011;4904;49.152;11.004;2023-02-17T01:07:38;5.93;;;4.80;;
9729;SDS011;4904;49.152;11.004;2023-02-17T01:10:06;6.22;;;4.55;;
9729;SDS011;4904;49.152;11.004;2023-02-17T01:12:34;7.47;;;4.78;;
9729;SDS011;4904;49.152;11.004;2023-02-17T01:15:03;7.30;;;4.90;;
9729;SDS011;4904;49.152;11.004;2023-02-17T01:17:31;7.28;;;4.97;;
9729;SDS011;4904;49.152;11.004;2023-02-17T01:19:58;8.57;;;4.95;;
9729;SDS011;4904;49.152;11.004;2023-02-17T01:22:26;8.65;;;4.80;;
9729;SDS011;4904;49.152;11.004;2023-02-17T01:24:53;7.35;;;4.78;;
9729;SDS011;4904;49.152;11.004;2023-02-17T01:27:20;5.50;;;4.72;;
9729;SDS011;4904;49.152;11.004;2023-02-17T01:29:47;8.88;;;5.10;;
9729;SDS011;4904;49.152;11.004;2023-02-17T01:32:16;7.15;;;4.78;;
9729;SDS011;4904;49.152;11.004;2023-02-17T01:34:43;5.43;;;4.45;;
9729;SDS011;4904;49.152;11.004;2023-02-17T01:37:10;5.18;;;3.97;;
9729;SDS011;4904;49.152;11.004;2023-02-17T01:39:38;7.53;;;4.30;;
9729;SDS011;4904;49.152;11.004;2023-02-17T01:42:05;5.00;;;4.30;;
9729;SDS011;4904;49.152;11.004;2023-02-17T01:44:35;6.00;;;4.28;;
9729;SDS011;4904;49.152;11.004;2023-02-17T01:47:18;6.18;;;4.40;;
9729;SDS011;4904;49.152;11.004;2023-02-17T01:49:45;7.03;;;4.38;;
9729;SDS011;4904;49.152;11.004;2023-02-17T01:52:14;7.53;;;4.57;;
9729;SDS011;4904;49.152;11.004;2023-02-17T01:54:46;7.35;;;4.57;;
9729;SDS011;4904;49.152;11.004;2023-02-17T01:57:18;6.53;;;4.30;;
9729;SDS011;4904;49.152;11.004;2023-02-17T01:59:49;5.65;;;4.25;;
9729;SDS011;4904;49.152;11.004;2023-02-17T02:02:18;6.68;;;4.63;;
9729;SDS011;4904;49.152;11.004;2023-02-17T02:04:46;5.60;;;4.03;;
9729;SDS011;4904;49.152;11.004;2023-02-17T02:07:17;10.63;;;4.20;;
9729;SDS011;4904;49.152;11.004;2023-02-17T02:09:48;7.78;;;4.20;;
9729;SDS011;4904;49.152;11.004;2023-02-17T02:12:18;4.63;;;4.18;;
9729;SDS011;4904;49.152;11.004;2023-02-17T02:14:47;6.80;;;4.22;;
9729;SDS011;4904;49.152;11.004;2023-02-17T02:17:20;4.80;;;4.03;;
9729;SDS011;4904;49.152;11.004;2023-02-17T02:23:06;7.30;;;4.10;;
9729;SDS011;4904;49.152;11.004;2023-02-17T02:26:05;5.68;;;4.10;;
9729;SDS011;4904;49.152;11.004;2023-02-17T02:28:58;7.85;;;3.80;;
9729;SDS011;4904;49.152;11.004;2023-02-17T02:31:43;4.72;;;4.07;;
9729;SDS011;4904;49.152;11.004;2023-02-17T02:34:22;4.97;;;3.90;;
9729;SDS011;4904;49.152;11.004;2023-02-17T02:36:57;7.00;;;4.07;;
9729;SDS011;4904;49.152;11.004;2023-02-17T02:39:31;4.65;;;3.90;;
9729;SDS011;4904;49.152;11.004;2023-02-17T02:42:04;5.93;;;4.18;;
9729;SDS011;4904;49.152;11.004;2023-02-17T02:44:33;5.07;;;3.63;;
9729;SDS011;4904;49.152;11.004;2023-02-17T02:47:00;4.43;;;3.60;;
9729;SDS011;4904;49.152;11.004;2023-02-17T02:49:30;5.30;;;3.42;;
9729;SDS011;4904;49.152;11.004;2023-02-17T02:52:01;4.25;;;3.60;;
9729;SDS011;4904;49.152;11.004;2023-02-17T02:54:36;6.05;;;3.47;;
9729;SDS011;4904;49.152;11.004;2023-02-17T02:57:18;7.07;;;3.63;;
9729;SDS011;4904;49.152;11.004;2023-02-17T03:00:03;5.43;;;3.40;;
9729;SDS011;4904;49.152;11.004;2023-02-17T03:02:38;6.03;;;3.20;;
9729;SDS011;4904;49.152;11.004;2023-02-17T03:05:12;7.35;;;4.07;;
9729;SDS011;4904;49.152;11.004;2023-02-17T03:07:47;7.40;;;3.63;;
9729;SDS011;4904;49.152;11.004;2023-02-17T03:10:18;4.82;;;3.75;;
9729;SDS011;4904;49.152;11.004;2023-02-17T03:12:46;4.63;;;3.58;;
9729;SDS011;4904;49.152;11.004;2023-02-17T03:15:14;6.85;;;3.45;;
9729;SDS011;4904;49.152;11.004;2023-02-17T03:17:44;4.00;;;3.30;;
9729;SDS011;4904;49.152;11.004;2023-02-17T03:20:13;5.68;;;3.75;;
9729;SDS011;4904;49.152;11.004;2023-02-17T03:22:42;4.60;;;3.50;;
9729;SDS011;4904;49.152;11.004;2023-02-17T03:25:12;4.28;;;3.30;;
9729;SDS011;4904;49.152;11.004;2023-02-17T03:27:39;4.72;;;3.40;;
9729;SDS011;4904;49.152;11.004;2023-02-17T03:30:08;6.63;;;3.55;;
9729;SDS011;4904;49.152;11.004;2023-02-17T03:32:35;6.65;;;3.70;;
9729;SDS011;4904;49.152;11.004;2023-02-17T03:35:02;5.30;;;3.63;;
9729;SDS011;4904;49.152;11.004;2023-02-17T03:37:30;4.70;;;3.42;;
9729;SDS011;4904;49.152;11.004;2023-02-17T03:39:57;6.70;;;3.78;;
9729;SDS011;4904;49.152;11.004;2023-02-17T03:42:24;5.15;;;3.80;;
9729;SDS011;4904;49.152;11.004;2023-02-17T03:44:51;5.57;;;4.13;;
9729;SDS011;4904;49.152;11.004;2023-02-17T03:47:18;6.82;;;4.00;;
9729;SDS011;4904;49.152;11.004;2023-02-17T03:49:45;7.30;;;4.10;;
9729;SDS011;4904;49.152;11.004;2023-02-17T03:52:12;8.57;;;4.13;;
9729;SDS011;4904;49.152;11.004;2023-02-17T03:54:40;7.85;;;4.22;;
9729;SDS011;4904;49.152;11.004;2023-02-17T03:57:07;6.25;;;4.15;;
9729;SDS011;4904;49.152;11.004;2023-02-17T03:59:33;7.78;;;4.47;;
9729;SDS011;4904;49.152;11.004;2023-02-17T04:02:00;7.18;;;4.50;;
9729;SDS011;4904;49.152;11.004;2023-02-17T04:04:27;6.05;;;4.30;;
9729;SDS011;4904;49.152;11.004;2023-02-17T04:06:54;5.75;;;4.35;;
9729;SDS011;4904;49.152;11.004;2023-02-17T04:09:21;7.70;;;4.63;;
9729;SDS011;4904;49.152;11.004;2023-02-17T04:11:49;5.20;;;4.35;;
9729;SDS011;4904;49.152;11.004;2023-02-17T04:14:16;7.72;;;4.90;;
9729;SDS011;4904;49.152;11.004;2023-02-17T04:16:43;5.60;;;4.50;;
9729;SDS011;4904;49.152;11.004;2023-02-17T04:19:10;7.13;;;4.80;;
9729;SDS011;4904;49.152;11.004;2023-02-17T04:21:37;8.25;;;4.82;;
9729;SDS011;4904;49.152;11.004;2023-02-17T04:24:04;5.55;;;4.30;;
9729;SDS011;4904;49.152;11.004;2023-02-17T04:26:31;7.05;;;4.65;;
9729;SDS011;4904;49.152;11.004;2023-02-17T04:28:59;6.97;;;4.70;;
9729;SDS011;4904;49.152;11.004;2023-02-17T04:31:29;6.22;;;4.60;;
9729;SDS011;4904;49.152;11.004;2023-02-17T04:33:56;5.45;;;4.68;;
9729;SDS011;4904;49.152;11.004;2023-02-17T04:36:22;7.38;;;5.05;;
9729;SDS011;4904;49.152;11.004;2023-02-17T04:38:50;6.25;;;4.63;;
9729;SDS011;4904;49.152;11.004;2023-02-17T04:41:17;6.55;;;4.72;;
9729;SDS011;4904;49.152;11.004;2023-02-17T04:43:43;8.43;;;5.18;;
9729;SDS011;4904;49.152;11.004;2023-02-17T04:46:12;7.78;;;4.95;;
9729;SDS011;4904;49.152;11.004;2023-02-17T04:48:39;8.25;;;4.82;;
9729;SDS011;4904;49.152;11.004;2023-02-17T04:51:05;7.75;;;4.65;;
9729;SDS011;4904;49.152;11.004;2023-02-17T04:53:32;6.70;;;4.57;;
9729;SDS011;4904;49.152;11.004;2023-02-17T04:55:59;7.05;;;4.53;;
9729;SDS011;4904;49.152;11.004;2023-02-17T04:58:26;6.53;;;4.68;;
9729;SDS011;4904;49.152;11.004;2023-02-17T05:00:53;7.78;;;4.28;;
9729;SDS011;4904;49.152;11.004;2023-02-17T05:03:25;6.95;;;4.97;;
9729;SDS011;4904;49.152;11.004;2023-02-17T05:05:52;6.18;;;4.50;;
9729;SDS011;4904;49.152;11.004;2023-02-17T05:08:19;5.80;;;4.03;;
9729;SDS011;4904;49.152;11.004;2023-02-17T05:10:46;6.25;;;4.82;;
9729;SDS011;4904;49.152;11.004;2023-02-17T05:13:13;5.10;;;4.53;;
9729;SDS011;4904;49.152;11.004;2023-02-17T05:15:41;5.47;;;3.83;;
9729;SDS011;4904;49.152;11.004;2023-02-17T05:18:08;5.53;;;4.47;;
9729;SDS011;4904;49.152;11.004;2023-02-17T05:20:36;7.15;;;4.43;;
9729;SDS011;4904;49.152;11.004;2023-02-17T05:23:03;5.95;;;4.43;;
9729;SDS011;4904;49.152;11.004;2023-02-17T05:25:30;6.57;;;4.93;;
9729;SDS011;4904;49.152;11.004;2023-02-17T05:27:57;5.03;;;4.43;;
9729;SDS011;4904;49.152;11.004;2023-02-17T05:30:24;7.20;;;4.93;;
9729;SDS011;4904;49.152;11.004;2023-02-17T05:32:51;9.68;;;5.57;;
9729;SDS011;4904;49.152;11.004;2023-02-17T05:35:18;9.25;;;5.70;;
9729;SDS011;4904;49.152;11.004;2023-02-17T05:37:46;7.55;;;5.70;;
9729;SDS011;4904;49.152;11.004;2023-02-17T05:40:13;8.88;;;5.00;;
9729;SDS011;4904;49.152;11.004;2023-02-17T05:42:40;8.73;;;5.15;;
9729;SDS011;4904;49.152;11.004;2023-02-17T05:45:07;5.68;;;4.50;;
9729;SDS011;4904;49.152;11.004;2023-02-17T05:47:34;6.90;;;5.10;;
9729;SDS011;4904;49.152;11.004;2023-02-17T05:50:01;6.80;;;4.50;;
9729;SDS011;4904;49.152;11.004;2023-02-17T05:52:28;6.70;;;4.78;;
9729;SDS011;4904;49.152;11.004;2023-02-17T05:54:56;6.93;;;4.82;;
9729;SDS011;4904;49.152;11.004;2023-02-17T05:57:23;6.85;;;4.50;;
9729;SDS011;4904;49.152;11.004;2023-02-17T05:59:50;6.93;;;4.50;;
9729;SDS011;4904;49.152;11.004;2023-02-17T06:02:17;6.78;;;4.63;;
9729;SDS011;4904;49.152;11.004;2023-02-17T06:04:43;8.32;;;5.22;;
9729;SDS011;4904;49.152;11.004;2023-02-17T06:07:10;8.98;;;4.35;;
9729;SDS011;4904;49.152;11.004;2023-02-17T06:09:37;5.60;;;4.28;;
9729;SDS011;4904;49.152;11.004;2023-02-17T06:12:05;6.97;;;4.78;;
9729;SDS011;4904;49.152;11.004;2023-02-17T06:14:32;5.85;;;4.85;;
9729;SDS011;4904;49.152;11.004;2023-02-17T06:16:59;6.80;;;4.70;;
9729;SDS011;4904;49.152;11.004;2023-02-17T06:19:28;6.00;;;4.22;;
9729;SDS011;4904;49.152;11.004;2023-02-17T06:21:54;8.02;;;4.80;;
9729;SDS011;4904;49.152;11.004;2023-02-17T06:24:22;9.88;;;4.43;;
9729;SDS011;4904;49.152;11.004;2023-02-17T06:26:49;7.22;;;4.80;;
9729;SDS011;4904;49.152;11.004;2023-02-17T06:29:17;5.72;;;4.72;;
9729;SDS011;4904;49.152;11.004;2023-02-17T06:31:44;7.65;;;4.57;;
9729;SDS011;4904;49.152;11.004;2023-02-17T06:34:11;6.57;;;4.32;;
9729;SDS011;4904;49.152;11.004;2023-02-17T06:36:38;7.53;;;4.20;;
9729;SDS011;4904;49.152;11.004;2023-02-17T06:39:05;6.50;;;4.18;;
9729;SDS011;4904;49.152;11.004;2023-02-17T06:41:31;6.15;;;4.55;;
9729;SDS011;4904;49.152;11.004;2023-02-17T06:43:58;6.43;;;3.97;;
9729;SDS011;4904;49.152;11.004;2023-02-17T06:46:26;6.05;;;4.32;;
9729;SDS011;4904;49.152;11.004;2023-02-17T06:48:53;7.50;;;4.22;;
9729;SDS011;4904;49.152;11.004;2023-02-17T06:51:20;7.95;;;3.92;;
9729;SDS011;4904;49.152;11.004;2023-02-17T06:53:47;5.15;;;3.92;;
9729;SDS011;4904;49.152;11.004;2023-02-17T06:56:14;7.47;;;4.05;;
9729;SDS011;4904;49.152;11.004;2023-02-17T06:58:41;6.70;;;4.22;;
9729;SDS011;4904;49.152;11.004;2023-02-17T07:01:13;3.85;;;3.13;;
9729;SDS011;4904;49.152;11.004;2023-02-17T07:03:43;4.10;;;2.83;;
9729;SDS011;4904;49.152;11.004;2023-02-17T07:06:10;6.63;;;3.67;;
9729;SDS011;4904;49.152;11.004;2023-02-17T07:08:37;7.78;;;3.67;;
9729;SDS011;4904;49.152;11.004;2023-02-17T07:11:05;6.22;;;3.00;;
9729;SDS011;4904;49.152;11.004;2023-02-17T07:13:32;5.38;;;3.22;;
9729;SDS011;4904;49.152;11.004;2023-02-17T07:15:59;5.78;;;3.55;;
9729;SDS011;4904;49.152;11.004;2023-02-17T07:18:26;4.60;;;3.25;;
9729;SDS011;4904;49.152;11.004;2023-02-17T07:20:54;4.88;;;3.10;;
9729;SDS011;4904;49.152;11.004;2023-02-17T07:23:21;6.95;;;3.50;;
9729;SDS011;4904;49.152;11.004;2023-02-17T07:25:48;5.13;;;3.20;;
9729;SDS011;4904;49.152;11.004;2023-02-17T07:28:15;4.57;;;2.97;;
9729;SDS011;4904;49.152;11.004;2023-02-17T07:30:42;4.32;;;3.05;;
9729;SDS011;4904;49.152;11.004;2023-02-17T07:33:09;5.95;;;3.40;;
9729;SDS011;4904;49.152;11.004;2023-02-17T07:35:39;4.80;;;3.47;;
9729;SDS011;4904;49.152;11.004;2023-02-17T07:38:09;5.35;;;3.10;;
9729;SDS011;4904;49.152;11.004;2023-02-17T07:40:36;2.70;;;2.30;;
9729;SDS011;4904;49.152;11.004;2023-02-17T07:43:03;5.88;;;3.03;;
9729;SDS011;4904;49.152;11.004;2023-02-17T07:45:30;5.82;;;3.47;;
9729;SDS011;4904;49.152;11.004;2023-02-17T07:47:57;6.07;;;3.38;;
9729;SDS011;4904;49.152;11.004;2023-02-17T07:50:24;5.82;;;3.30;;
9729;SDS011;4904;49.152;11.004;2023-02-17T07:52:51;4.82;;;3.33;;
9729;SDS011;4904;49.152;11.004;2023-02-17T07:55:19;7.95;;;3.55;;
9729;SDS011;4904;49.152;11.004;2023-02-17T07:57:46;4.47;;;3.00;;
9729;SDS011;4904;49.152;11.004;2023-02-17T08:00:13;4.97;;;3.03;;
9729;SDS011;4904;49.152;11.004;2023-02-17T08:02:41;4.20;;;3.58;;
9729;SDS011;4904;49.152;11.004;2023-02-17T08:05:07;3.55;;;2.90;;
9729;SDS011;4904;49.152;11.004;2023-02-17T08:07:34;4.97;;;2.65;;
9729;SDS011;4904;49.152;11.004;2023-02-17T08:10:01;4.90;;;3.45;;
9729;SDS011;4904;49.152;11.004;2023-02-17T08:12:47;5.43;;;2.80;;
9729;SDS011;4904;49.152;11.004;2023-02-17T08:15:32;5.20;;;2.95;;
9729;SDS011;4904;49.152;11.004;2023-02-17T08:17:59;5.57;;;3.28;;
9729;SDS011;4904;49.152;11.004;2023-02-17T08:20:29;4.70;;;2.55;;
9729;SDS011;4904;49.152;11.004;2023-02-17T08:22:56;5.47;;;2.90;;
9729;SDS011;4904;49.152;11.004;2023-02-17T08:25:23;5.07;;;2.70;;
9729;SDS011;4904;49.152;11.004;2023-02-17T08:27:51;3.33;;;2.55;;
9729;SDS011;4904;49.152;11.004;2023-02-17T08:30:18;4.57;;;3.15;;
9729;SDS011;4904;49.152;11.004;2023-02-17T08:32:45;5.03;;;2.65;;
9729;SDS011;4904;49.152;11.004;2023-02-17T08:35:12;3.45;;;3.05;;
9729;SDS011;4904;49.152;11.004;2023-02-17T08:37:39;3.17;;;2.72;;
9729;SDS011;4904;49.152;11.004;2023-02-17T08:40:06;4.28;;;2.70;;
9729;SDS011;4904;49.152;11.004;2023-02-17T08:42:34;3.13;;;2.78;;
9729;SDS011;4904;49.152;11.004;2023-02-17T08:45:04;3.72;;;2.50;;
9729;SDS011;4904;49.152;11.004;2023-02-17T08:47:31;3.53;;;2.70;;
9729;SDS011;4904;49.152;11.004;2023-02-17T08:50:00;4.85;;;2.90;;
9729;SDS011;4904;49.152;11.004;2023-02-17T08:52:28;4.82;;;2.72;;
9729;SDS011;4904;49.152;11.004;2023-02-17T08:54:55;7.07;;;2.22;;
9729;SDS011;4904;49.152;11.004;2023-02-17T08:57:22;5.18;;;2.80;;
9729;SDS011;4904;49.152;11.004;2023-02-17T08:59:50;3.35;;;2.50;;
9729;SDS011;4904;49.152;11.004;2023-02-17T09:02:18;3.25;;;2.03;;
9729;SDS011;4904;49.152;11.004;2023-02-17T09:04:45;5.28;;;2.78;;
9729;SDS011;4904;49.152;11.004;2023-02-17T09:07:12;5.25;;;2.53;;
9729;SDS011;4904;49.152;11.004;2023-02-17T09:09:40;3.40;;;2.80;;
9729;SDS011;4904;49.152;11.004;2023-02-17T09:12:07;3.90;;;2.63;;
9729;SDS011;4904;49.152;11.004;2023-02-17T09:14:34;5.80;;;3.05;;
9729;SDS011;4904;49.152;11.004;2023-02-17T09:17:02;4.18;;;2.80;;
9729;SDS011;4904;49.152;11.004;2023-02-17T09:19:30;7.30;;;2.45;;
9729;SDS011;4904;49.152;11.004;2023-02-17T09:21:57;5.60;;;2.70;;
9729;SDS011;4904;49.152;11.004;2023-02-17T09:24:24;3.95;;;2.80;;
9729;SDS011;4904;49.152;11.004;2023-02-17T09:26:51;3.80;;;2.80;;
9729;SDS011;4904;49.152;11.004;2023-02-17T09:29:18;5.82;;;2.65;;
9729;SDS011;4904;49.152;11.004;2023-02-17T09:31:45;2.80;;;2.30;;
9729;SDS011;4904;49.152;11.004;2023-02-17T09:34:12;2.60;;;2.40;;
9729;SDS011;4904;49.152;11.004;2023-02-17T09:36:41;3.25;;;2.33;;
9729;SDS011;4904;49.152;11.004;2023-02-17T09:39:08;3.83;;;2.40;;
9729;SDS011;4904;49.152;11.004;2023-02-17T09:41:38;3.50;;;2.67;;
9729;SDS011;4904;49.152;11.004;2023-02-17T09:44:12;3.47;;;2.75;;
9729;SDS011;4904;49.152;11.004;2023-02-17T09:46:46;2.40;;;2.20;;
9729;SDS011;4904;49.152;11.004;2023-02-17T09:49:21;3.78;;;2.42;;
9729;SDS011;4904;49.152;11.004;2023-02-17T09:51:53;5.68;;;2.60;;
9729;SDS011;4904;49.152;11.004;2023-02-17T09:54:27;2.92;;;2.13;;
9729;SDS011;4904;49.152;11.004;2023-02-17T09:56:59;2.63;;;2.28;;
9729;SDS011;4904;49.152;11.004;2023-02-17T09:59:31;3.03;;;2.53;;
9729;SDS011;4904;49.152;11.004;2023-02-17T10:02:04;4.80;;;2.70;;
9729;SDS011;4904;49.152;11.004;2023-02-17T10:04:35;3.17;;;2.42;;
9729;SDS011;4904;49.152;11.004;2023-02-17T10:07:08;3.58;;;2.28;;
9729;SDS011;4904;49.152;11.004;2023-02-17T10:09:43;5.68;;;2.95;;
9729;SDS011;4904;49.152;11.004;2023-02-17T10:12:14;3.63;;;2.85;;
9729;SDS011;4904;49.152;11.004;2023-02-17T10:14:45;4.90;;;2.83;;
9729;SDS011;4904;49.152;11.004;2023-02-17T10:17:16;2.97;;;2.30;;
9729;SDS011;4904;49.152;11.004;2023-02-17T10:19:51;2.25;;;2.08;;
9729;SDS011;4904;49.152;11.004;2023-02-17T10:22:23;3.05;;;2.40;;
9729;SDS011;4904;49.152;11.004;2023-02-17T10:24:52;5.78;;;2.70;;
9729;SDS011;4904;49.152;11.004;2023-02-17T10:27:22;2.50;;;2.30;;
9729;SDS011;4904;49.152;11.004;2023-02-17T10:30:02;2.45;;;2.10;;
9729;SDS011;4904;49.152;11.004;2023-02-17T10:32:51;4.43;;;2.50;;
9729;SDS011;4904;49.152;11.004;2023-02-17T10:35:26;2.38;;;2.17;;
9729;SDS011;4904;49.152;11.004;2023-02-17T10:38:15;2.65;;;2.20;;
9729;SDS011;4904;49.152;11.004;2023-02-17T10:40:44;5.55;;;2.63;;
9729;SDS011;4904;49.152;11.004;2023-02-17T10:43:17;1.92;;;1.83;;
9729;SDS011;4904;49.152;11.004;2023-02-17T10:45:47;3.85;;;2.60;;
9729;SDS011;4904;49.152;11.004;2023-02-17T10:48:16;4.85;;;2.70;;
9729;SDS011;4904;49.152;11.004;2023-02-17T10:50:46;2.80;;;2.50;;
9729;SDS011;4904;49.152;11.004;2023-02-17T10:53:16;2.10;;;1.90;;
9729;SDS011;4904;49.152;11.004;2023-02-17T10:55:49;2.30;;;2.10;;
9729;SDS011;4904;49.152;11.004;2023-02-17T10:58:24;2.65;;;2.40;;
9729;SDS011;4904;49.152;11.004;2023-02-17T11:00:54;2.92;;;2.03;;
9729;SDS011;4904;49.152;11.004;2023-02-17T11:03:23;2.40;;;2.03;;
9729;SDS011;4904;49.152;11.004;2023-02-17T11:05:54;2.45;;;1.90;;
9729;SDS011;4904;49.152;11.004;2023-02-17T11:08:27;5.55;;;2.75;;
9729;SDS011;4904;49.152;11.004;2023-02-17T11:10:59;3.53;;;1.80;;
9729;SDS011;4904;49.152;11.004;2023-02-17T11:13:33;2.58;;;2.03;;
9729;SDS011;4904;49.152;11.004;2023-02-17T11:16:03;3.47;;;2.22;;
9729;SDS011;4904;49.152;11.004;2023-02-17T11:18:31;3.03;;;2.30;;
9729;SDS011;4904;49.152;11.004;2023-02-17T11:21:00;2.25;;;2.05;;
9729;SDS011;4904;49.152;11.004;2023-02-17T11:23:31;3.65;;;2.10;;
9729;SDS011;4904;49.152;11.004;2023-02-17T11:26:00;2.92;;;2.40;;
9729;SDS011;4904;49.152;11.004;2023-02-17T11:28:33;3.97;;;2.35;;
9729;SDS011;4904;49.152;11.004;2023-02-17T11:31:00;1.67;;;1.58;;
9729;SDS011;4904;49.152;11.004;2023-02-17T11:33:29;2.35;;;2.13;;
9729;SDS011;4904;49.152;11.004;2023-02-17T11:36:03;2.45;;;2.20;;
9729;SDS011;4904;49.152;11.004;2023-02-17T11:38:40;2.15;;;1.95;;
9729;SDS011;4904;49.152;11.004;2023-02-17T11:41:08;4.30;;;3.90;;
9729;SDS011;4904;49.152;11.004;2023-02-17T11:43:36;2.90;;;2.40;;
9729;SDS011;4904;49.152;11.004;2023-02-17T11:46:07;2.55;;;2.30;;
9729;SDS011;4904;49.152;11.004;2023-02-17T11:48:48;2.50;;;2.10;;
9729;SDS011;4904;49.152;11.004;2023-02-17T11:51:41;4.25;;;2.35;;
9729;SDS011;4904;49.152;11.004;2023-02-17T11:54:22;1.80;;;1.70;;
9729;SDS011;4904;49.152;11.004;2023-02-17T11:56:57;2.25;;;2.00;;
9729;SDS011;4904;49.152;11.004;2023-02-17T11:59:35;2.72;;;1.85;;
9729;SDS011;4904;49.152;11.004;2023-02-17T12:02:15;1.75;;;1.65;;
9729;SDS011;4904;49.152;11.004;2023-02-17T12:04:48;1.67;;;1.40;;
9729;SDS011;4904;49.152;11.004;2023-02-17T12:07:38;2.92;;;1.75;;
9729;SDS011;4904;49.152;11.004;2023-02-17T12:10:20;2.45;;;1.73;;
9729;SDS011;4904;49.152;11.004;2023-02-17T12:12:56;2.30;;;2.08;;
9729;SDS011;4904;49.152;11.004;2023-02-17T12:15:30;2.65;;;1.77;;
9729;SDS011;4904;49.152;11.004;2023-02-17T12:18:08;3.13;;;2.17;;
9729;SDS011;4904;49.152;11.004;2023-02-17T12:20:46;2.83;;;2.50;;
9729;SDS011;4904;49.152;11.004;2023-02-17T12:23:24;2.05;;;1.95;;
9729;SDS011;4904;49.152;11.004;2023-02-17T12:26:08;2.40;;;2.20;;
9729;SDS011;4904;49.152;11.004;2023-02-17T12:28:44;3.13;;;2.40;;
9729;SDS011;4904;49.152;11.004;2023-02-17T12:31:36;3.13;;;2.30;;
9729;SDS011;4904;49.152;11.004;2023-02-17T12:34:16;3.17;;;2.35;;
9729;SDS011;4904;49.152;11.004;2023-02-17T12:36:49;2.50;;;1.73;;
9729;SDS011;4904;49.152;11.004;2023-02-17T12:39:17;3.08;;;2.25;;
9729;SDS011;4904;49.152;11.004;2023-02-17T12:41:50;4.25;;;2.45;;
9729;SDS011;4904;49.152;11.004;2023-02-17T12:44:21;4.57;;;2.28;;
9729;SDS011;4904;49.152;11.004;2023-02-17T12:46:51;1.90;;;1.80;;
9729;SDS011;4904;49.152;11.004;2023-02-17T12:49:23;2.15;;;1.80;;
9729;SDS011;4904;49.152;11.004;2023-02-17T12:51:56;4.65;;;2.40;;
9729;SDS011;4904;49.152;11.004;2023-02-17T12:54:27;3.83;;;2.13;;
9729;SDS011;4904;49.152;11.004;2023-02-17T12:57:10;3.17;;;2.17;;
9729;SDS011;4904;49.152;11.004;2023-02-17T12:59:40;2.53;;;1.92;;
9729;SDS011;4904;49.152;11.004;2023-02-17T13:02:09;2.63;;;2.30;;
9729;SDS011;4904;49.152;11.004;2023-02-17T13:04:37;2.10;;;1.98;;
9729;SDS011;4904;49.152;11.004;2023-02-17T13:07:08;2.78;;;2.50;;
9729;SDS011;4904;49.152;11.004;2023-02-17T13:09:56;3.28;;;2.80;;
9729;SDS011;4904;49.152;11.004;2023-02-17T13:12:35;4.97;;;3.58;;
9729;SDS011;4904;49.152;11.004;2023-02-17T13:17:58;3.58;;;3.28;;
9729;SDS011;4904;49.152;11.004;2023-02-17T13:23:40;3.20;;;2.65;;
9729;SDS011;4904;49.152;11.004;2023-02-17T13:26:14;2.55;;;2.35;;
9729;SDS011;4904;49.152;11.004;2023-02-17T13:29:11;2.33;;;2.13;;
9729;SDS011;4904;49.152;11.004;2023-02-17T13:31:47;2.30;;;2.10;;
9729;SDS011;4904;49.152;11.004;2023-02-17T13:34:30;1.88;;;1.77;;
9729;SDS011;4904;49.152;11.004;2023-02-17T13:36:59;3.10;;;1.88;;
9729;SDS011;4904;49.152;11.004;2023-02-17T13:39:39;2.70;;;1.90;;
9729;SDS011;4904;49.152;11.004;2023-02-17T13:45:09;3.08;;;2.10;;
9729;SDS011;4904;49.152;11.004;2023-02-17T13:47:39;2.65;;;2.45;;
9729;SDS011;4904;49.152;11.004;2023-02-17T13:50:20;2.90;;;2.35;;
9729;SDS011;4904;49.152;11.004;2023-02-17T13:52:58;2.35;;;2.15;;
9729;SDS011;4904;49.152;11.004;2023-02-17T13:55:27;2.28;;;2.08;;
9729;SDS011;4904;49.152;11.004;2023-02-17T13:57:56;2.40;;;2.20;;
9729;SDS011;4904;49.152;11.004;2023-02-17T14:00:26;2.30;;;2.10;;
9729;SDS011;4904;49.152;11.004;2023-02-17T14:02:56;2.50;;;2.30;;
9729;SDS011;4904;49.152;11.004;2023-02-17T14:05:25;2.22;;;2.03;;
9729;SDS011;4904;49.152;11.004;2023-02-17T14:08:02;2.33;;;2.13;;
9729;SDS011;4904;49.152;11.004;2023-02-17T14:10:31;2.42;;;2.22;;
9729;SDS011;4904;49.152;11.004;2023-02-17T14:12:59;2.28;;;1.65;;
9729;SDS011;4904;49.152;11.004;2023-02-17T14:15:27;1.88;;;1.75;;
9729;SDS011;4904;49.152;11.004;2023-02-17T14:17:54;2.17;;;1.88;;
9729;SDS011;4904;49.152;11.004;2023-02-17T14:20:29;2.90;;;1.92;;
9729;SDS011;4904;49.152;11.004;2023-02-17T14:23:01;2.50;;;2.20;;
9729;SDS011;4904;49.152;11.004;2023-02-17T14:25:31;1.90;;;1.75;;
9729;SDS011;4904;49.152;11.004;2023-02-17T14:28:00;1.85;;;1.75;;
9729;SDS011;4904;49.152;11.004;2023-02-17T14:30:29;2.10;;;1.90;;
9729;SDS011;4904;49.152;11.004;2023-02-17T14:33:02;2.50;;;2.30;;
9729;SDS011;4904;49.152;11.004;2023-02-17T14:35:31;2.03;;;1.83;;
9729;SDS011;4904;49.152;11.004;2023-02-17T14:38:08;2.75;;;1.67;;
9729;SDS011;4904;49.152;11.004;2023-02-17T14:40:43;2.10;;;1.90;;
9729;SDS011;4904;49.152;11.004;2023-02-17T14:43:10;1.98;;;1.83;;
9729;SDS011;4904;49.152;11.004;2023-02-17T14:45:39;3.38;;;1.90;;
9729;SDS011;4904;49.152;11.004;2023-02-17T14:48:06;1.90;;;1.60;;
9729;SDS011;4904;49.152;11.004;2023-02-17T14:50:33;2.22;;;1.65;;
9729;SDS011;4904;49.152;11.004;2023-02-17T14:53:08;1.77;;;1.60;;
9729;SDS011;4904;49.152;11.004;2023-02-17T14:55:39;2.45;;;1.88;;
9729;SDS011;4904;49.152;11.004;2023-02-17T14:58:11;1.20;;;1.17;;
9729;SDS011;4904;49.152;11.004;2023-02-17T15:00:45;2.35;;;1.70;;
9729;SDS011;4904;49.152;11.004;2023-02-17T15:03:12;2.58;;;1.50;;
9729;SDS011;4904;49.152;11.004;2023-02-17T15:05:39;1.70;;;1.60;;
9729;SDS011;4904;49.152;11.004;2023-02-17T15:08:07;1.63;;;1.52;;
9729;SDS011;4904;49.152;11.004;2023-02-17T15:10:35;1.60;;;1.50;;
9729;SDS011;4904;49.152;11.004;2023-02-17T15:13:04;1.60;;;1.50;;
9729;SDS011;4904;49.152;11.004;2023-02-17T15:15:31;1.98;;;1.38;;
9729;SDS011;4904;49.152;11.004;2023-02-17T15:17:59;2.80;;;1.73;;
9729;SDS011;4904;49.152;11.004;2023-02-17T15:20:26;2.17;;;1.63;;
9729;SDS011;4904;49.152;11.004;2023-02-17T15:22:53;2.55;;;1.80;;
9729;SDS011;4904;49.152;11.004;2023-02-17T15:25:22;1.88;;;1.77;;
9729;SDS011;4904;49.152;11.004;2023-02-17T15:27:50;1.63;;;1.52;;
9729;SDS011;4904;49.152;11.004;2023-02-17T15:30:18;1.70;;;1.60;;